Lutz, FL (33548)

7:00 PM EST on November 23, 2014 (GMT -0500)
Old Reliable Groves, Lutz, FL | Change Station
CLOSE
Current Station
Personal Weather Station
Location: Lutz, FL
Elevation: 69 ft
Nearby Weather Stations

Elev 69 ft 28.12 °N, 82.47 °W | Updated 3 seconds ago

Partly Cloudy
Partly Cloudy
74.8 °F
Feels Like 74 °F
N
0.0
Wind Variable Wind from NE
Gusts 0.0 mph

Today
High -- | Low -- °F
--% Chance of Precip.
Yesterday
High -- | Low -- °F
Precip. -- in
6:58 AM 5:34 PM
Waxing Crescent, 3% visible
Pressure 29.91 in
Visibility 8.0 miles
Clouds Scattered Clouds 25000 ft
Heat Index 74 °F
Dew Point 72 °F
Humidity 90%
Rainfall 0.00 in
Snow Depth Not available.
UV 0 out of 12
Pollen .60 out of 12
Air Quality Not available.
Flu Activity Not available.
METAR KTPA 232353Z 18010KT 8SM SCT250 23/21 A2991 RMK AO2 SLP127 T02280206 10267 20222 52006

More Conditions Fewer Conditions

Pressure 29.91 in
Visibility 8.0 miles
Clouds Scattered Clouds 25000 ft
Heat Index 74 °F
Dew Point 72 °F
Humidity 90%
Rainfall 0.00 in
Snow Depth Not available.
UV 0 out of 12
Pollen .60 out of 12
Air Quality Not available.
Flu Activity Not available.
METAR KTPA 232353Z 18010KT 8SM SCT250 23/21 A2991 RMK AO2 SLP127 T02280206 10267 20222 52006

More Conditions Fewer Conditions

10-Day Weather Forecast

Almanac

Astronomy

Nov. 23, 2014 Rise Set
Actual Time
Civil Twilight
Nautical Twilight
Astronomical Twilight
Moon
Length of Visible Light
Length of Day
Tomorrow will be .
, % of the Moon is Illuminated

Today's Extremes

State Highs State Lows

Community

WunderPhotos

Upload Photos

1,773,215 photos uploaded!

WunderBlogs® & News

Nearby

Air Quality

  Air Quality AQ Index Pollutant
Not available.

Snow Depth

Station Depth Elevation

Earthquake Activity

City Distance Mag. Time & Date
Minimum magnitude displayed is 2.5.

Coastal Water Temperatures

Place Temperature

Nearby Weather Stations